createdAt,value
2018-12-25T00:00:17.377Z,9.10
2018-12-25T00:05:12.875Z,9.30
2018-12-25T00:10:08.826Z,9.77
2018-12-25T00:15:04.308Z,8.93
2018-12-25T00:19:59.883Z,9.30
2018-12-25T00:24:55.339Z,9.00
2018-12-25T00:29:50.818Z,8.93
2018-12-25T00:34:46.295Z,8.97
2018-12-25T00:39:41.940Z,9.00
2018-12-25T00:44:38.583Z,8.77
2018-12-25T00:49:35.127Z,8.53
2018-12-25T00:54:30.763Z,9.07
2018-12-25T00:59:26.785Z,8.80
2018-12-25T01:04:22.520Z,8.70
2018-12-25T01:09:18.296Z,8.10
2018-12-25T01:14:14.054Z,8.20
2018-12-25T01:19:09.523Z,8.83
2018-12-25T01:24:05.018Z,8.97
2018-12-25T01:29:00.577Z,8.67
2018-12-25T01:33:56.195Z,7.80
2018-12-25T01:38:51.684Z,7.67
2018-12-25T01:43:47.265Z,8.47
2018-12-25T01:48:42.755Z,8.43
2018-12-25T01:53:38.418Z,7.87
2018-12-25T01:58:34.137Z,7.57
2018-12-25T02:03:29.611Z,7.90
2018-12-25T02:08:25.263Z,7.80
2018-12-25T02:13:20.748Z,7.63
2018-12-25T02:18:16.429Z,7.80
2018-12-25T02:23:12.123Z,7.80
2018-12-25T02:28:07.737Z,7.10
2018-12-25T02:33:03.237Z,8.30
2018-12-25T02:37:58.917Z,8.17
2018-12-25T02:42:54.554Z,7.27
2018-12-25T02:47:50.196Z,8.73
2018-12-25T02:52:45.738Z,8.20
2018-12-25T02:57:41.221Z,7.47
2018-12-25T03:02:36.932Z,7.60
2018-12-25T03:07:32.402Z,7.57
2018-12-25T03:12:28.010Z,8.37
2018-12-25T03:17:23.624Z,7.33
2018-12-25T03:22:19.207Z,7.63
2018-12-25T03:27:15.065Z,6.97
2018-12-25T03:32:12.245Z,6.93
2018-12-25T03:37:07.945Z,7.03
2018-12-25T03:42:03.483Z,7.33
2018-12-25T03:46:59.043Z,7.83
2018-12-25T03:51:54.562Z,6.50
2018-12-25T03:56:50.043Z,7.13
2018-12-25T04:01:45.601Z,7.20
2018-12-25T04:06:41.063Z,7.87
2018-12-25T04:11:36.537Z,6.97
2018-12-25T04:16:32.073Z,6.90
2018-12-25T04:21:27.552Z,7.03
2018-12-25T04:26:23.099Z,6.50
2018-12-25T04:31:18.843Z,6.53
2018-12-25T04:36:14.393Z,6.77
2018-12-25T04:41:09.990Z,6.47
2018-12-25T04:46:05.704Z,6.63
2018-12-25T04:51:01.175Z,6.10
2018-12-25T04:55:56.667Z,7.27
2018-12-25T05:00:52.274Z,6.50
2018-12-25T05:05:47.829Z,6.37
2018-12-25T05:10:43.675Z,5.93
2018-12-25T05:15:39.248Z,5.77
2018-12-25T05:20:38.027Z,6.27
2018-12-25T05:25:32.051Z,6.13
2018-12-25T05:30:27.664Z,5.73
2018-12-25T05:35:23.248Z,6.40
2018-12-25T05:40:18.951Z,6.20
2018-12-25T05:45:14.506Z,5.83
2018-12-25T05:50:10.016Z,6.00
2018-12-25T05:55:05.653Z,5.53
2018-12-25T06:00:01.149Z,6.50
2018-12-25T06:04:56.683Z,6.40
2018-12-25T06:09:52.321Z,6.17
2018-12-25T06:14:47.764Z,5.83
2018-12-25T06:19:43.248Z,5.90
2018-12-25T06:24:38.740Z,5.90
2018-12-25T06:29:34.189Z,6.07
2018-12-25T06:34:29.652Z,6.03
2018-12-25T06:39:25.164Z,5.80
2018-12-25T06:44:20.655Z,5.40
2018-12-25T06:49:16.148Z,6.53
2018-12-25T06:54:11.613Z,6.20
2018-12-25T06:59:07.076Z,5.77
2018-12-25T07:04:02.548Z,6.00
2018-12-25T07:08:58.033Z,5.90
2018-12-25T07:13:53.511Z,6.33
2018-12-25T07:18:51.929Z,6.40
2018-12-25T07:23:47.410Z,6.00
2018-12-25T07:28:42.852Z,5.83
2018-12-25T07:33:38.317Z,7.00
2018-12-25T07:38:33.818Z,6.70
2018-12-25T07:43:29.330Z,6.97
2018-12-25T07:48:24.808Z,6.87
2018-12-25T07:53:20.334Z,6.67
2018-12-25T07:58:15.819Z,6.30
2018-12-25T08:03:11.292Z,6.93
2018-12-25T08:08:06.834Z,7.23
2018-12-25T08:13:02.401Z,7.73
2018-12-25T08:17:57.873Z,7.50
2018-12-25T08:22:53.376Z,8.23
2018-12-25T08:27:48.850Z,8.37
2018-12-25T08:32:44.335Z,8.03
2018-12-25T08:37:39.847Z,8.17
2018-12-25T08:42:35.616Z,8.50
2018-12-25T08:47:31.111Z,8.90
2018-12-25T08:52:26.664Z,8.53
2018-12-25T08:57:22.176Z,9.00
2018-12-25T09:02:17.800Z,8.97
2018-12-25T09:07:13.390Z,8.80
2018-12-25T09:12:08.860Z,8.97
2018-12-25T09:17:04.408Z,9.50
2018-12-25T09:21:59.877Z,9.47
2018-12-25T09:26:55.373Z,9.60
2018-12-25T09:31:51.043Z,9.10
2018-12-25T09:36:46.546Z,9.57
2018-12-25T09:41:42.054Z,10.07
2018-12-25T09:46:37.578Z,10.10
2018-12-25T09:51:32.993Z,10.13
2018-12-25T09:56:28.487Z,9.67
2018-12-25T10:01:23.962Z,9.70
2018-12-25T10:06:19.498Z,9.17
2018-12-25T10:11:15.058Z,10.03
2018-12-25T10:16:10.527Z,9.50
2018-12-25T10:21:06.325Z,9.33
2018-12-25T10:26:01.844Z,9.10
2018-12-25T10:30:57.530Z,9.60
2018-12-25T10:35:53.052Z,9.50
2018-12-25T10:40:48.528Z,9.43
2018-12-25T10:45:44.014Z,9.93
2018-12-25T10:50:39.484Z,8.87
2018-12-25T10:55:34.996Z,9.57
2018-12-25T11:00:39.132Z,9.33
2018-12-25T11:05:34.720Z,9.87
2018-12-25T11:10:30.233Z,9.87
2018-12-25T11:15:25.763Z,9.20
2018-12-25T11:20:21.258Z,9.90
2018-12-25T11:25:16.780Z,9.13
2018-12-25T11:30:12.287Z,9.53
2018-12-25T11:35:08.192Z,10.60
2018-12-25T11:40:03.878Z,10.17
2018-12-25T11:44:59.354Z,11.10
2018-12-25T11:49:54.978Z,11.43
2018-12-25T11:54:50.470Z,11.33
2018-12-25T11:59:46.005Z,11.73
2018-12-25T12:04:41.714Z,11.53
2018-12-25T12:09:37.635Z,12.13
2018-12-25T12:14:33.124Z,11.83
2018-12-25T12:19:28.635Z,12.30
2018-12-25T12:24:24.152Z,12.93
2018-12-25T12:29:19.630Z,13.70
2018-12-25T12:34:15.187Z,13.37
2018-12-25T12:39:10.724Z,13.03
2018-12-25T12:44:06.191Z,13.53
2018-12-25T12:49:01.671Z,14.40
2018-12-25T12:53:57.107Z,13.70
2018-12-25T12:58:52.637Z,14.10
2018-12-25T13:03:48.103Z,14.20
2018-12-25T13:08:43.593Z,13.57
2018-12-25T13:13:39.097Z,12.17
2018-12-25T13:18:34.579Z,10.70
2018-12-25T13:23:30.173Z,12.17
2018-12-25T13:28:25.878Z,10.80
2018-12-25T13:33:21.446Z,10.80
2018-12-25T13:38:17.016Z,11.87
2018-12-25T13:43:14.274Z,10.33
2018-12-25T13:48:09.767Z,10.30
2018-12-25T13:53:05.312Z,9.43
2018-12-25T13:58:00.797Z,10.80
2018-12-25T14:02:56.301Z,10.87
2018-12-25T14:07:51.774Z,10.60
2018-12-25T14:12:47.257Z,10.97
2018-12-25T14:17:42.929Z,10.67
2018-12-25T14:22:38.391Z,10.40
2018-12-25T14:27:33.860Z,11.23
2018-12-25T14:32:29.330Z,10.80
2018-12-25T14:37:24.840Z,10.43
2018-12-25T14:42:20.369Z,11.17
2018-12-25T14:47:15.874Z,11.33
2018-12-25T14:52:11.332Z,11.10
2018-12-25T14:57:06.799Z,11.17
2018-12-25T15:02:02.289Z,12.23
2018-12-25T15:06:57.773Z,12.10
2018-12-25T15:11:53.227Z,12.90
2018-12-25T15:16:48.713Z,12.60
2018-12-25T15:21:44.213Z,13.07
2018-12-25T15:26:39.682Z,12.90
2018-12-25T15:31:35.186Z,13.67
2018-12-25T15:36:30.688Z,13.07
2018-12-25T15:41:26.169Z,13.30
2018-12-25T15:46:21.694Z,12.73
2018-12-25T15:51:17.166Z,12.40
2018-12-25T15:56:12.670Z,12.43
2018-12-25T16:01:08.144Z,13.30
2018-12-25T16:06:03.590Z,12.53
2018-12-25T16:10:59.039Z,11.27
2018-12-25T16:15:54.508Z,11.90
2018-12-25T16:20:50.007Z,12.17
2018-12-25T16:25:45.514Z,12.47
2018-12-25T16:30:41.004Z,12.83
2018-12-25T16:35:36.490Z,13.73
2018-12-25T16:40:31.955Z,14.03
2018-12-25T16:45:27.472Z,14.17
2018-12-25T16:50:22.975Z,13.60
2018-12-25T16:55:18.475Z,14.80
2018-12-25T17:00:13.931Z,14.73
2018-12-25T17:05:09.458Z,14.63
2018-12-25T17:10:06.346Z,14.93
2018-12-25T17:15:01.836Z,14.40
2018-12-25T17:19:57.322Z,15.80
2018-12-25T17:24:52.830Z,15.10
2018-12-25T17:29:48.375Z,15.73
2018-12-25T17:34:43.882Z,15.77
2018-12-25T17:39:39.430Z,16.20
2018-12-25T17:44:34.905Z,16.10
2018-12-25T17:49:30.445Z,16.87
2018-12-25T17:54:25.984Z,17.97
2018-12-25T17:59:21.455Z,17.90
2018-12-25T18:04:16.927Z,15.87
2018-12-25T18:09:12.395Z,16.43
2018-12-25T18:14:07.859Z,15.30
2018-12-25T18:19:03.381Z,16.00
2018-12-25T18:23:58.818Z,15.57
2018-12-25T18:28:54.337Z,15.83
2018-12-25T18:33:49.795Z,14.90
2018-12-25T18:38:45.252Z,14.93
2018-12-25T18:43:40.740Z,15.73
2018-12-25T18:48:36.295Z,16.33
2018-12-25T18:53:31.760Z,16.23
2018-12-25T18:58:27.267Z,16.30
2018-12-25T19:03:22.725Z,16.07
2018-12-25T19:08:18.209Z,15.33
2018-12-25T19:13:13.681Z,17.87
2018-12-25T19:18:12.799Z,17.93
2018-12-25T19:23:08.263Z,18.23
2018-12-25T19:28:03.745Z,17.35
2018-12-25T19:32:59.207Z,18.27
2018-12-25T19:37:54.713Z,19.60
2018-12-25T19:42:50.232Z,18.57
2018-12-25T19:47:45.694Z,18.50
2018-12-25T19:52:41.178Z,17.67
2018-12-25T19:57:36.609Z,17.63
2018-12-25T20:02:32.419Z,19.40
2018-12-25T20:08:30.412Z,17.80
2018-12-25T20:14:21.773Z,17.57
2018-12-25T20:20:05.955Z,17.37
2018-12-25T20:25:39.236Z,18.30
2018-12-25T20:32:01.916Z,17.57
2018-12-25T20:38:03.943Z,17.50
2018-12-25T20:44:14.891Z,18.27
2018-12-25T20:50:04.224Z,18.93
2018-12-25T20:56:18.671Z,19.83
2018-12-25T21:02:00.047Z,18.87
2018-12-25T21:07:49.407Z,20.53
2018-12-25T21:13:58.628Z,19.33
2018-12-25T21:19:50.259Z,20.13
2018-12-25T21:25:39.331Z,20.57
2018-12-25T21:30:34.816Z,21.73
2018-12-25T21:35:30.401Z,20.60
2018-12-25T21:40:25.853Z,19.60
2018-12-25T21:45:21.339Z,20.03
2018-12-25T21:50:16.822Z,19.97
2018-12-25T21:55:18.631Z,21.60
2018-12-25T22:00:13.780Z,21.97
2018-12-25T22:05:09.252Z,22.23
2018-12-25T22:10:05.174Z,19.93
2018-12-25T22:15:00.649Z,21.07
2018-12-25T22:19:56.105Z,21.57
2018-12-25T22:24:51.595Z,21.87
2018-12-25T22:29:47.074Z,20.50
2018-12-25T22:34:42.555Z,22.27
2018-12-25T22:39:38.027Z,20.23
2018-12-25T22:44:33.500Z,21.47
2018-12-25T22:49:28.992Z,22.40
2018-12-25T22:54:24.467Z,21.70
2018-12-25T22:59:20.188Z,23.30
2018-12-25T23:04:15.699Z,22.20
2018-12-25T23:09:11.207Z,21.80
2018-12-25T23:14:06.693Z,20.47
2018-12-25T23:19:02.216Z,21.43
2018-12-25T23:23:57.709Z,21.20
2018-12-25T23:28:53.355Z,20.37
2018-12-25T23:33:48.879Z,20.60
2018-12-25T23:38:44.457Z,19.97
2018-12-25T23:43:39.946Z,21.40
2018-12-25T23:48:35.409Z,21.03
2018-12-25T23:53:31.199Z,20.10
2018-12-25T23:58:26.817Z,22.87
